createdAt,value
2022-11-28T00:02:12.499Z,23.23
2022-11-28T00:05:14.795Z,22.17
2022-11-28T00:08:17.290Z,22.20
2022-11-28T00:11:19.780Z,22.37
2022-11-28T00:14:21.825Z,21.57
2022-11-28T00:17:23.891Z,22.73
2022-11-28T00:20:26.005Z,22.10
2022-11-28T00:23:28.501Z,21.50
2022-11-28T00:26:34.606Z,21.33
2022-11-28T00:29:36.928Z,19.03
2022-11-28T00:32:39.041Z,19.40
2022-11-28T00:35:41.111Z,20.37
2022-11-28T00:38:43.966Z,20.30
2022-11-28T00:41:46.297Z,18.90
2022-11-28T00:44:49.455Z,18.43
2022-11-28T00:47:51.535Z,18.40
2022-11-28T00:50:54.732Z,17.97
2022-11-28T00:53:58.720Z,18.90
2022-11-28T00:57:00.795Z,19.83
2022-11-28T01:00:04.942Z,17.90
2022-11-28T01:03:07.009Z,18.67
2022-11-28T01:06:10.450Z,18.37
2022-11-28T01:09:24.001Z,18.33
2022-11-28T01:12:26.100Z,17.43
2022-11-28T01:15:28.316Z,18.43
2022-11-28T01:18:30.322Z,18.17
2022-11-28T01:21:32.562Z,16.17
2022-11-28T01:24:34.639Z,16.43
2022-11-28T01:27:36.677Z,16.13
2022-11-28T01:30:38.848Z,14.17
2022-11-28T01:33:40.976Z,15.80
2022-11-28T01:36:43.032Z,14.00
2022-11-28T01:39:45.110Z,14.20
2022-11-28T01:42:47.219Z,13.97
2022-11-28T01:45:49.582Z,13.53
2022-11-28T01:48:53.202Z,13.43
2022-11-28T01:52:08.058Z,13.17
2022-11-28T01:55:13.351Z,12.87
2022-11-28T01:58:16.048Z,12.77
2022-11-28T02:01:19.351Z,13.27
2022-11-28T02:04:22.802Z,11.97
2022-11-28T02:07:25.014Z,12.23
2022-11-28T02:10:37.302Z,13.33
2022-11-28T02:14:14.537Z,11.60
2022-11-28T02:17:44.770Z,12.77
2022-11-28T02:21:05.371Z,11.53
2022-11-28T02:24:25.955Z,12.10
2022-11-28T02:28:05.706Z,12.77
2022-11-28T02:31:07.647Z,11.30
2022-11-28T02:34:20.549Z,11.60
2022-11-28T02:37:40.815Z,11.70
2022-11-28T02:41:06.130Z,11.47
2022-11-28T02:44:33.679Z,11.33
2022-11-28T02:47:49.528Z,13.70
2022-11-28T02:51:02.660Z,11.87
2022-11-28T02:54:08.140Z,12.17
2022-11-28T02:57:11.087Z,11.47
2022-11-28T03:00:30.422Z,12.50
2022-11-28T03:03:38.702Z,11.60
2022-11-28T03:07:00.317Z,11.43
2022-11-28T03:10:35.960Z,12.07
2022-11-28T03:14:01.416Z,11.83
2022-11-28T03:18:07.505Z,11.67
2022-11-28T03:21:16.940Z,12.23
2022-11-28T03:24:29.976Z,11.63
2022-11-28T03:28:08.412Z,12.13
2022-11-28T03:31:21.352Z,11.87
2022-11-28T03:34:27.099Z,12.37
2022-11-28T03:37:35.320Z,12.30
2022-11-28T03:40:44.984Z,11.57
2022-11-28T03:43:53.590Z,12.10
2022-11-28T03:46:59.513Z,11.40
2022-11-28T03:50:07.663Z,12.10
2022-11-28T03:53:17.659Z,11.33
2022-11-28T03:56:53.967Z,10.57
2022-11-28T04:00:00.187Z,10.57
2022-11-28T04:03:12.053Z,11.03
2022-11-28T04:06:26.435Z,9.93
2022-11-28T04:09:45.375Z,9.60
2022-11-28T04:12:57.351Z,10.40
2022-11-28T04:16:39.857Z,10.40
2022-11-28T04:19:48.902Z,9.67
2022-11-28T04:22:56.165Z,10.37
2022-11-28T04:26:07.854Z,10.27
2022-11-28T04:29:14.237Z,11.17
2022-11-28T04:32:22.288Z,9.57
2022-11-28T04:35:30.952Z,9.93
2022-11-28T04:38:34.890Z,9.67
2022-11-28T04:41:46.395Z,9.70
2022-11-28T04:45:01.403Z,9.07
2022-11-28T04:48:04.361Z,9.50
2022-11-28T04:51:16.333Z,8.80
2022-11-28T04:54:47.501Z,9.30
2022-11-28T04:57:57.342Z,8.57
2022-11-28T05:01:02.092Z,8.33
2022-11-28T05:04:04.443Z,9.60
2022-11-28T05:07:08.645Z,8.43
2022-11-28T05:10:13.022Z,8.40
2022-11-28T05:13:15.682Z,8.60
2022-11-28T05:16:18.067Z,8.00
2022-11-28T05:19:20.216Z,8.20
2022-11-28T05:22:22.735Z,8.63
2022-11-28T05:25:25.246Z,8.63
2022-11-28T05:28:27.382Z,8.53
2022-11-28T05:31:29.561Z,9.13
2022-11-28T05:34:31.720Z,7.90
2022-11-28T05:37:34.072Z,8.90
2022-11-28T05:40:36.289Z,9.20
2022-11-28T05:43:38.347Z,8.10
2022-11-28T05:46:40.541Z,8.83
2022-11-28T05:49:43.354Z,8.50
2022-11-28T05:52:45.676Z,8.00
2022-11-28T05:55:48.455Z,8.77
2022-11-28T05:58:51.215Z,8.60
2022-11-28T06:01:53.406Z,8.13
2022-11-28T06:04:55.610Z,8.57
2022-11-28T06:07:57.832Z,9.23
2022-11-28T06:11:00.867Z,8.83
2022-11-28T06:14:03.320Z,8.50
2022-11-28T06:17:05.400Z,8.83
2022-11-28T06:20:08.850Z,8.17
2022-11-28T06:23:10.881Z,7.47
2022-11-28T06:26:16.240Z,9.07
2022-11-28T06:29:18.255Z,8.63
2022-11-28T06:32:22.195Z,9.00
2022-11-28T06:35:24.441Z,9.00
2022-11-28T06:38:26.602Z,8.23
2022-11-28T06:41:28.788Z,8.03
2022-11-28T06:44:30.925Z,7.53
2022-11-28T06:47:33.191Z,8.73
2022-11-28T06:50:35.216Z,8.23
2022-11-28T06:53:37.409Z,8.80
2022-11-28T06:56:41.119Z,8.10
2022-11-28T06:59:43.449Z,8.43
2022-11-28T07:02:45.603Z,8.87
2022-11-28T07:05:48.342Z,7.93
2022-11-28T07:08:51.293Z,7.87
2022-11-28T07:11:53.328Z,8.37
2022-11-28T07:14:55.928Z,8.27
2022-11-28T07:17:58.002Z,7.77
2022-11-28T07:21:00.110Z,8.13
2022-11-28T07:24:02.706Z,7.60
2022-11-28T07:27:04.886Z,7.77
2022-11-28T07:30:08.029Z,7.90
2022-11-28T07:33:10.095Z,8.03
2022-11-28T07:36:15.293Z,8.30
2022-11-28T07:39:17.774Z,8.40
2022-11-28T07:42:20.390Z,7.73
2022-11-28T07:45:59.279Z,8.30
2022-11-28T07:49:04.595Z,8.03
2022-11-28T07:52:06.639Z,7.57
2022-11-28T07:55:08.934Z,8.03
2022-11-28T07:58:11.045Z,8.37
2022-11-28T08:01:22.595Z,7.87
2022-11-28T08:04:24.824Z,8.00
2022-11-28T08:07:27.058Z,7.97
2022-11-28T08:10:29.264Z,8.17
2022-11-28T08:13:31.401Z,7.80
2022-11-28T08:16:33.814Z,7.90
2022-11-28T08:19:36.767Z,8.00
2022-11-28T08:22:38.960Z,6.93
2022-11-28T08:25:41.054Z,7.30
2022-11-28T08:28:43.786Z,7.73
2022-11-28T08:31:46.237Z,7.83
2022-11-28T08:34:48.242Z,7.27
2022-11-28T08:37:50.437Z,6.93
2022-11-28T08:41:03.932Z,7.40
2022-11-28T08:44:06.095Z,6.57
2022-11-28T08:47:08.162Z,6.83
2022-11-28T08:50:10.491Z,6.17
2022-11-28T08:53:12.562Z,6.60
2022-11-28T08:56:14.599Z,6.17
2022-11-28T08:59:16.702Z,7.27
2022-11-28T09:02:21.993Z,5.87
2022-11-28T09:05:29.700Z,6.07
2022-11-28T09:08:31.879Z,5.50
2022-11-28T09:11:33.889Z,5.80
2022-11-28T09:14:35.968Z,5.40
2022-11-28T09:17:38.004Z,5.63
2022-11-28T09:20:40.392Z,5.00
2022-11-28T09:23:44.790Z,5.83
2022-11-28T09:26:46.910Z,5.27
2022-11-28T09:29:48.995Z,5.28
2022-11-28T09:32:51.096Z,5.50
2022-11-28T09:35:53.131Z,5.10
2022-11-28T09:38:55.199Z,6.43
2022-11-28T09:42:06.285Z,5.63
2022-11-28T09:45:12.606Z,5.53
2022-11-28T09:48:34.844Z,4.93
2022-11-28T09:51:50.177Z,5.10
2022-11-28T09:55:11.247Z,5.80
2022-11-28T09:58:25.020Z,5.00
2022-11-28T10:01:37.885Z,5.03
2022-11-28T10:05:19.277Z,5.40
2022-11-28T10:08:36.376Z,5.00
2022-11-28T10:12:01.011Z,5.20
2022-11-28T10:15:03.081Z,4.10
2022-11-28T10:18:22.962Z,5.07
2022-11-28T10:21:40.622Z,4.50
2022-11-28T10:24:48.589Z,4.93
2022-11-28T10:27:51.754Z,4.40
2022-11-28T10:31:02.043Z,4.60
2022-11-28T10:34:20.461Z,5.27
2022-11-28T10:37:26.970Z,4.93
2022-11-28T10:40:29.072Z,4.80
2022-11-28T10:43:46.899Z,5.53
2022-11-28T10:46:52.012Z,5.30
2022-11-28T10:49:57.001Z,5.43
2022-11-28T10:53:03.494Z,5.70
2022-11-28T10:56:33.605Z,5.57
2022-11-28T10:59:41.985Z,5.80
2022-11-28T11:02:55.067Z,5.83
2022-11-28T11:05:57.518Z,5.30
2022-11-28T11:09:00.664Z,5.70
2022-11-28T11:12:04.766Z,5.77
2022-11-28T11:15:30.719Z,5.43
2022-11-28T11:18:51.231Z,5.70
2022-11-28T11:22:09.659Z,5.57
2022-11-28T11:25:17.242Z,5.97
2022-11-28T11:28:33.059Z,6.20
2022-11-28T11:31:46.898Z,5.83
2022-11-28T11:34:50.135Z,6.87
2022-11-28T11:38:12.677Z,5.90
2022-11-28T11:41:31.571Z,5.30
2022-11-28T11:44:34.992Z,5.70
2022-11-28T11:47:42.635Z,5.37
2022-11-28T11:50:54.871Z,6.27
2022-11-28T11:54:26.256Z,6.00
2022-11-28T11:57:46.507Z,6.37
2022-11-28T12:00:48.654Z,6.43
2022-11-28T12:03:58.339Z,6.93
2022-11-28T12:07:05.132Z,6.17
2022-11-28T12:10:16.429Z,6.47
2022-11-28T12:13:22.215Z,6.77
2022-11-28T12:16:55.903Z,7.50
2022-11-28T12:20:34.083Z,6.13
2022-11-28T12:23:54.486Z,7.07
2022-11-28T12:26:59.199Z,6.97
2022-11-28T12:30:29.351Z,6.87
2022-11-28T12:33:48.482Z,6.60
2022-11-28T12:37:14.806Z,7.23
2022-11-28T12:40:55.281Z,7.30
2022-11-28T12:44:27.234Z,7.43
2022-11-28T12:47:44.424Z,7.00
2022-11-28T12:50:52.794Z,6.70
2022-11-28T12:53:54.877Z,7.13
2022-11-28T12:57:02.997Z,7.50
2022-11-28T13:00:19.951Z,6.80
2022-11-28T13:04:11.393Z,7.00
2022-11-28T13:07:21.529Z,6.97
2022-11-28T13:10:42.043Z,7.20
2022-11-28T13:14:14.893Z,7.57
2022-11-28T13:17:22.828Z,8.20
2022-11-28T13:20:29.687Z,7.53
2022-11-28T13:24:13.346Z,7.60
2022-11-28T13:27:54.957Z,7.53
2022-11-28T13:31:23.028Z,8.00
2022-11-28T13:34:25.505Z,7.97
2022-11-28T13:41:52.722Z,8.10
2022-11-28T13:45:07.510Z,8.17
2022-11-28T13:52:29.620Z,8.40
2022-11-28T13:55:47.044Z,8.77
2022-11-28T13:59:00.916Z,8.57
2022-11-28T14:02:16.308Z,9.03
2022-11-28T14:05:30.959Z,10.27
2022-11-28T14:08:40.403Z,11.17
2022-11-28T14:11:57.598Z,12.00
2022-11-28T14:15:24.360Z,11.57
2022-11-28T14:19:00.508Z,11.30
2022-11-28T14:22:21.339Z,12.10
2022-11-28T14:25:26.747Z,11.73
2022-11-28T14:28:36.871Z,11.73
2022-11-28T14:31:40.110Z,12.10
2022-11-28T14:34:46.399Z,12.17
2022-11-28T14:37:54.223Z,14.00
2022-11-28T14:40:57.196Z,13.40
2022-11-28T14:44:47.160Z,12.07
2022-11-28T14:48:24.449Z,13.13
2022-11-28T14:52:09.914Z,14.57
2022-11-28T14:55:22.118Z,14.60
2022-11-28T14:58:24.221Z,13.57
2022-11-28T15:01:55.765Z,14.10
2022-11-28T15:05:35.466Z,13.40
2022-11-28T15:09:13.779Z,13.43
2022-11-28T15:12:37.865Z,13.07
2022-11-28T15:15:49.212Z,14.57
2022-11-28T15:18:57.102Z,13.27
2022-11-28T15:22:01.137Z,14.30
2022-11-28T15:25:22.034Z,15.03
2022-11-28T15:28:28.530Z,14.30
2022-11-28T15:31:33.152Z,16.30
2022-11-28T15:34:37.614Z,15.00
2022-11-28T15:37:46.131Z,15.77
2022-11-28T15:40:53.721Z,14.37
2022-11-28T15:43:57.056Z,14.80
2022-11-28T15:46:59.426Z,14.70
2022-11-28T15:50:11.846Z,13.50
2022-11-28T15:53:19.240Z,14.83
2022-11-28T15:56:21.450Z,14.67
2022-11-28T15:59:23.675Z,15.93
2022-11-28T16:02:34.159Z,14.47
2022-11-28T16:05:36.430Z,14.40
2022-11-28T16:08:46.211Z,14.47
2022-11-28T16:11:53.468Z,15.97
2022-11-28T16:15:01.952Z,15.80
2022-11-28T16:18:04.525Z,15.30
2022-11-28T16:21:14.700Z,15.07
2022-11-28T16:24:38.763Z,16.47
2022-11-28T16:27:44.695Z,16.33
2022-11-28T16:30:48.828Z,16.17
2022-11-28T16:33:52.385Z,15.70
2022-11-28T16:36:54.943Z,15.73
2022-11-28T16:40:35.774Z,16.23
2022-11-28T16:43:40.792Z,17.00
2022-11-28T16:47:00.512Z,17.33
2022-11-28T16:50:20.251Z,17.57
2022-11-28T16:53:44.278Z,16.57
2022-11-28T16:56:48.076Z,17.53
2022-11-28T16:59:54.386Z,17.13
2022-11-28T17:02:56.845Z,18.03
2022-11-28T17:06:01.267Z,16.97
2022-11-28T17:09:08.539Z,17.53
2022-11-28T17:12:27.886Z,18.33
2022-11-28T17:15:30.777Z,18.53
2022-11-28T17:18:33.554Z,20.10
2022-11-28T17:21:43.268Z,16.37
2022-11-28T17:24:47.143Z,17.33
2022-11-28T17:27:49.874Z,17.47
2022-11-28T17:30:52.762Z,18.17
2022-11-28T17:33:57.074Z,17.67
2022-11-28T17:37:04.355Z,17.27
2022-11-28T17:40:26.553Z,18.40
2022-11-28T17:43:32.414Z,18.03
2022-11-28T17:46:39.003Z,17.03
2022-11-28T17:49:46.160Z,18.33
2022-11-28T17:52:49.719Z,17.77
2022-11-28T17:55:59.012Z,17.63
2022-11-28T17:59:03.066Z,18.17
2022-11-28T18:02:06.102Z,17.73
2022-11-28T18:05:09.376Z,19.50
2022-11-28T18:08:16.807Z,18.10
2022-11-28T18:11:23.803Z,19.23
2022-11-28T18:14:28.487Z,18.87
2022-11-28T18:17:33.761Z,17.87
2022-11-28T18:20:39.324Z,19.47
2022-11-28T18:23:50.025Z,18.87
2022-11-28T18:26:54.870Z,20.10
2022-11-28T18:29:58.029Z,19.80
2022-11-28T18:33:01.325Z,20.33
2022-11-28T18:36:11.126Z,18.10
2022-11-28T18:39:16.187Z,18.50
2022-11-28T18:42:21.379Z,19.60
2022-11-28T18:45:24.300Z,19.30
2022-11-28T18:48:27.855Z,18.20
2022-11-28T18:51:34.851Z,19.20
2022-11-28T18:54:39.374Z,19.63
2022-11-28T18:57:42.364Z,19.23
2022-11-28T19:00:46.667Z,19.17
2022-11-28T19:03:52.551Z,19.03
2022-11-28T19:06:56.414Z,19.83
2022-11-28T19:10:00.460Z,18.93
2022-11-28T19:13:04.152Z,18.80
2022-11-28T19:16:09.876Z,18.27
2022-11-28T19:19:13.324Z,17.67
2022-11-28T19:22:16.963Z,19.27
2022-11-28T19:25:19.969Z,17.87
2022-11-28T19:28:23.819Z,17.10
2022-11-28T19:31:29.668Z,18.90
2022-11-28T19:34:34.679Z,17.90
2022-11-28T19:37:38.155Z,18.47
2022-11-28T19:40:41.394Z,18.20
2022-11-28T19:43:45.277Z,18.57
2022-11-28T19:46:51.065Z,18.97
2022-11-28T19:49:54.709Z,19.43
2022-11-28T19:52:59.940Z,18.50
2022-11-28T19:56:05.622Z,18.53
2022-11-28T19:59:10.790Z,18.03
2022-11-28T20:02:15.120Z,17.77
2022-11-28T20:05:18.859Z,18.40
2022-11-28T20:08:23.237Z,17.90
2022-11-28T20:11:30.284Z,18.67
2022-11-28T20:14:34.777Z,20.87
2022-11-28T20:17:38.865Z,19.50
2022-11-28T20:20:43.371Z,19.70
2022-11-28T20:23:56.686Z,18.47
2022-11-28T20:27:01.089Z,18.70
2022-11-28T20:30:07.651Z,18.87
2022-11-28T20:33:10.798Z,18.60
2022-11-28T20:36:17.055Z,17.60
2022-11-28T20:39:20.212Z,18.40
2022-11-28T20:42:23.984Z,18.43
2022-11-28T20:45:28.524Z,17.53
2022-11-28T20:48:31.843Z,18.37
2022-11-28T20:51:37.094Z,19.50
2022-11-28T20:54:40.168Z,18.53
2022-11-28T20:57:43.212Z,18.90
2022-11-28T21:00:47.414Z,19.23
2022-11-28T21:03:51.265Z,19.53
2022-11-28T21:06:54.268Z,20.10
2022-11-28T21:10:00.692Z,19.73
2022-11-28T21:13:03.329Z,20.47
2022-11-28T21:16:08.032Z,19.67
2022-11-28T21:19:10.590Z,20.67
2022-11-28T21:22:13.257Z,20.03
2022-11-28T21:25:15.427Z,19.60
2022-11-28T21:28:18.133Z,19.90
2022-11-28T21:31:25.983Z,19.37
2022-11-28T21:34:28.380Z,19.47
2022-11-28T21:37:30.630Z,20.60
2022-11-28T21:40:33.743Z,20.20
2022-11-28T21:43:35.813Z,21.73
2022-11-28T21:46:38.029Z,21.03
2022-11-28T21:49:40.500Z,20.07
2022-11-28T21:52:42.898Z,20.37
2022-11-28T21:55:45.580Z,20.40
2022-11-28T21:58:48.430Z,20.80
2022-11-28T22:01:50.536Z,20.70
2022-11-28T22:04:55.188Z,21.63
2022-11-28T22:07:57.471Z,19.97
2022-11-28T22:11:03.684Z,19.83
2022-11-28T22:14:05.882Z,20.97
2022-11-28T22:17:08.181Z,21.33
2022-11-28T22:20:10.834Z,21.13
2022-11-28T22:23:12.986Z,20.30
2022-11-28T22:26:15.640Z,20.17
2022-11-28T22:29:18.445Z,22.00
2022-11-28T22:32:21.095Z,20.40
2022-11-28T22:35:23.903Z,20.47
2022-11-28T22:38:26.008Z,21.27
2022-11-28T22:41:29.626Z,23.00
2022-11-28T22:44:34.301Z,20.40
2022-11-28T22:47:36.882Z,21.23
2022-11-28T22:50:40.684Z,20.87
2022-11-28T22:53:43.601Z,21.77
2022-11-28T22:56:45.644Z,20.33
2022-11-28T22:59:47.739Z,19.50
2022-11-28T23:02:49.939Z,20.60
2022-11-28T23:05:52.226Z,21.07
2022-11-28T23:08:55.874Z,20.93
2022-11-28T23:12:01.536Z,20.97
2022-11-28T23:15:04.073Z,20.67
2022-11-28T23:18:06.310Z,20.87
2022-11-28T23:21:09.402Z,20.77
2022-11-28T23:24:18.177Z,20.87
2022-11-28T23:27:21.044Z,19.50
2022-11-28T23:30:23.244Z,20.63
2022-11-28T23:33:25.640Z,19.70
2022-11-28T23:36:31.087Z,20.57
2022-11-28T23:39:34.339Z,20.27
2022-11-28T23:42:41.939Z,20.97
2022-11-28T23:45:44.005Z,21.67
2022-11-28T23:48:47.613Z,19.53
2022-11-28T23:51:49.811Z,22.80
2022-11-28T23:54:51.847Z,22.20
2022-11-28T23:57:54.908Z,20.20
